createdAt,value
2022-12-08T00:01:51.597Z,70.48
2022-12-08T00:03:54.401Z,70.32
2022-12-08T00:06:14.506Z,71.06
2022-12-08T00:08:35.331Z,70.89
2022-12-08T00:10:52.303Z,70.42
2022-12-08T00:12:54.435Z,71.06
2022-12-08T00:14:56.299Z,70.18
2022-12-08T00:16:58.944Z,70.61
2022-12-08T00:19:00.927Z,69.96
2022-12-08T00:21:03.486Z,69.91
2022-12-08T00:23:05.599Z,69.19
2022-12-08T00:25:07.679Z,69.12
2022-12-08T00:27:11.338Z,68.21
2022-12-08T00:29:17.371Z,67.90
2022-12-08T00:31:19.909Z,66.65
2022-12-08T00:33:21.799Z,67.13
2022-12-08T00:35:23.935Z,66.16
2022-12-08T00:37:25.753Z,66.07
2022-12-08T00:39:27.738Z,65.69
2022-12-08T00:41:48.627Z,65.91
2022-12-08T00:43:50.405Z,64.90
2022-12-08T00:45:52.353Z,65.06
2022-12-08T00:47:54.527Z,64.71
2022-12-08T00:49:56.306Z,64.64
2022-12-08T00:51:58.133Z,64.85
2022-12-08T00:54:00.323Z,64.44
2022-12-08T00:56:02.086Z,64.99
2022-12-08T00:58:04.019Z,65.23
2022-12-08T01:00:07.022Z,64.89
2022-12-08T01:02:09.518Z,65.09
2022-12-08T01:04:15.660Z,65.02
2022-12-08T01:06:18.058Z,64.66
2022-12-08T01:08:19.963Z,65.07
2022-12-08T01:10:21.818Z,64.51
2022-12-08T01:12:24.104Z,64.96
2022-12-08T01:14:26.192Z,65.10
2022-12-08T01:16:31.567Z,64.97
2022-12-08T01:18:34.871Z,64.56
2022-12-08T01:20:36.558Z,64.77
2022-12-08T01:22:38.315Z,64.84
2022-12-08T01:24:40.477Z,64.89
2022-12-08T01:26:42.753Z,64.93
2022-12-08T01:28:45.763Z,64.58
2022-12-08T01:30:47.957Z,64.68
2022-12-08T01:32:49.766Z,64.40
2022-12-08T01:34:51.566Z,63.98
2022-12-08T01:36:53.729Z,64.26
2022-12-08T01:38:58.377Z,63.89
2022-12-08T01:41:00.152Z,64.06
2022-12-08T01:43:02.325Z,64.22
2022-12-08T01:45:17.889Z,63.54
2022-12-08T01:47:20.195Z,63.67
2022-12-08T01:49:28.392Z,63.82
2022-12-08T01:51:35.070Z,63.18
2022-12-08T01:53:37.003Z,63.59
2022-12-08T01:55:43.834Z,63.73
2022-12-08T01:57:53.732Z,63.53
2022-12-08T02:00:08.687Z,64.60
2022-12-08T02:02:12.217Z,64.13
2022-12-08T02:04:14.003Z,64.47
2022-12-08T02:06:17.590Z,64.22
2022-12-08T02:08:20.032Z,64.41
2022-12-08T02:10:24.262Z,64.25
2022-12-08T02:12:26.071Z,63.94
2022-12-08T02:14:28.283Z,63.90
2022-12-08T02:17:00.431Z,63.83
2022-12-08T02:19:36.678Z,63.82
2022-12-08T02:21:53.299Z,63.83
2022-12-08T02:24:32.882Z,64.02
2022-12-08T02:26:49.798Z,64.14
2022-12-08T02:28:57.582Z,64.30
2022-12-08T02:31:31.562Z,64.89
2022-12-08T02:33:55.438Z,64.76
2022-12-08T02:35:58.851Z,65.37
2022-12-08T02:38:27.678Z,65.72
2022-12-08T02:40:57.933Z,65.71
2022-12-08T02:43:02.751Z,65.57
2022-12-08T02:45:17.571Z,65.34
2022-12-08T02:47:22.121Z,65.24
2022-12-08T02:49:32.119Z,65.04
2022-12-08T02:51:34.433Z,65.08
2022-12-08T02:53:36.952Z,64.92
2022-12-08T02:56:17.631Z,65.25
2022-12-08T02:58:41.898Z,64.81
2022-12-08T03:01:02.944Z,64.56
2022-12-08T03:03:35.065Z,64.64
2022-12-08T03:05:45.922Z,65.17
2022-12-08T03:07:55.183Z,64.04
2022-12-08T03:10:13.812Z,65.05
2022-12-08T03:12:43.748Z,65.09
2022-12-08T03:14:50.502Z,65.63
2022-12-08T03:16:56.606Z,65.67
2022-12-08T03:19:21.099Z,65.81
2022-12-08T03:21:23.280Z,66.23
2022-12-08T03:23:26.576Z,66.59
2022-12-08T03:25:33.950Z,65.79
2022-12-08T03:27:36.222Z,66.39
2022-12-08T03:29:38.193Z,66.49
2022-12-08T03:31:45.338Z,66.57
2022-12-08T03:33:52.077Z,66.94
2022-12-08T03:35:55.574Z,66.80
2022-12-08T03:38:09.257Z,66.63
2022-12-08T03:40:15.283Z,66.80
2022-12-08T03:42:17.036Z,65.99
2022-12-08T03:44:18.937Z,65.80
2022-12-08T03:48:23.903Z,66.52
2022-12-08T03:50:25.834Z,65.92
2022-12-08T03:52:28.094Z,65.93
2022-12-08T03:54:29.955Z,66.79
2022-12-08T03:56:37.222Z,66.06
2022-12-08T03:58:39.325Z,66.00
2022-12-08T04:00:41.294Z,66.02
2022-12-08T04:02:43.112Z,66.12
2022-12-08T04:04:45.230Z,65.69
2022-12-08T04:06:47.314Z,66.27
2022-12-08T04:08:50.177Z,66.06
2022-12-08T04:10:52.303Z,66.04
2022-12-08T04:12:54.143Z,65.74
2022-12-08T04:14:55.894Z,65.95
2022-12-08T04:16:58.071Z,65.68
2022-12-08T04:19:00.001Z,65.01
2022-12-08T04:21:02.165Z,65.00
2022-12-08T04:23:04.320Z,64.91
2022-12-08T04:25:06.875Z,64.33
2022-12-08T04:27:08.615Z,64.70
2022-12-08T04:29:10.731Z,64.67
2022-12-08T04:31:13.032Z,64.66
2022-12-08T04:33:14.979Z,64.33
2022-12-08T04:35:17.254Z,64.22
2022-12-08T04:37:19.157Z,63.95
2022-12-08T04:39:20.910Z,64.48
2022-12-08T04:41:23.075Z,64.12
2022-12-08T04:43:24.945Z,63.95
2022-12-08T04:45:26.696Z,64.62
2022-12-08T04:47:28.834Z,64.40
2022-12-08T04:49:30.610Z,64.68
2022-12-08T04:51:32.481Z,63.96
2022-12-08T04:53:34.714Z,64.60
2022-12-08T04:55:44.836Z,64.69
2022-12-08T04:57:46.841Z,64.78
2022-12-08T04:59:49.065Z,64.46
2022-12-08T05:01:50.931Z,65.04
2022-12-08T05:03:52.695Z,64.94
2022-12-08T05:05:54.913Z,64.92
2022-12-08T05:07:56.732Z,65.46
2022-12-08T05:09:58.625Z,64.87
2022-12-08T05:12:00.772Z,64.84
2022-12-08T05:14:02.542Z,64.96
2022-12-08T05:16:07.344Z,64.89
2022-12-08T05:18:09.591Z,64.74
2022-12-08T05:20:12.087Z,65.32
2022-12-08T05:22:13.882Z,64.72
2022-12-08T05:24:16.170Z,65.15
2022-12-08T05:26:17.923Z,65.24
2022-12-08T05:28:40.701Z,65.09
2022-12-08T05:30:42.762Z,65.11
2022-12-08T05:32:44.556Z,65.29
2022-12-08T05:34:46.667Z,65.24
2022-12-08T05:36:48.620Z,65.72
2022-12-08T05:38:50.386Z,66.03
2022-12-08T05:40:52.649Z,66.61
2022-12-08T05:42:54.471Z,66.65
2022-12-08T05:44:56.387Z,66.81
2022-12-08T05:46:58.561Z,67.31
2022-12-08T05:49:01.663Z,68.18
2022-12-08T05:51:03.808Z,68.00
2022-12-08T05:53:05.942Z,67.97
2022-12-08T05:55:08.239Z,68.22
2022-12-08T05:57:10.050Z,68.14
2022-12-08T05:59:12.165Z,68.62
2022-12-08T06:01:28.530Z,68.91
2022-12-08T06:03:30.387Z,68.79
2022-12-08T06:05:34.017Z,69.00
2022-12-08T06:07:35.839Z,68.76
2022-12-08T06:09:37.643Z,68.79
2022-12-08T06:11:39.775Z,68.42
2022-12-08T06:13:41.574Z,68.31
2022-12-08T06:15:43.389Z,68.02
2022-12-08T06:17:45.691Z,67.54
2022-12-08T06:19:47.488Z,67.43
2022-12-08T06:21:49.342Z,66.60
2022-12-08T06:23:53.289Z,67.10
2022-12-08T06:25:55.043Z,66.86
2022-12-08T06:27:56.874Z,66.20
2022-12-08T06:29:59.151Z,65.71
2022-12-08T06:32:00.981Z,65.46
2022-12-08T06:34:03.227Z,65.11
2022-12-08T06:36:06.750Z,64.80
2022-12-08T06:38:08.697Z,64.75
2022-12-08T06:40:11.177Z,64.35
2022-12-08T06:42:31.269Z,64.54
2022-12-08T06:44:33.521Z,64.51
2022-12-08T06:46:35.420Z,64.40
2022-12-08T06:48:37.698Z,64.45
2022-12-08T06:50:39.507Z,64.00
2022-12-08T06:52:51.563Z,63.73
2022-12-08T06:55:00.578Z,63.87
2022-12-08T06:57:02.415Z,63.87
2022-12-08T06:59:04.804Z,63.64
2022-12-08T07:01:08.414Z,62.58
2022-12-08T07:03:11.136Z,63.44
2022-12-08T07:05:13.269Z,63.09
2022-12-08T07:07:15.050Z,62.90
2022-12-08T07:09:16.843Z,62.26
2022-12-08T07:11:21.951Z,62.72
2022-12-08T07:13:24.310Z,62.11
2022-12-08T07:15:27.378Z,62.84
2022-12-08T07:17:29.672Z,62.08
2022-12-08T07:19:31.552Z,61.64
2022-12-08T07:21:33.870Z,60.67
2022-12-08T07:23:36.448Z,60.21
2022-12-08T07:25:38.302Z,60.67
2022-12-08T07:27:42.032Z,60.30
2022-12-08T07:29:43.794Z,59.46
2022-12-08T07:31:45.928Z,58.54
2022-12-08T07:33:48.363Z,58.38
2022-12-08T07:36:01.776Z,58.77
2022-12-08T07:38:05.849Z,57.74
2022-12-08T07:40:09.458Z,57.90
2022-12-08T07:42:11.573Z,56.64
2022-12-08T07:44:13.489Z,55.80
2022-12-08T07:46:18.389Z,55.56
2022-12-08T07:48:20.884Z,55.66
2022-12-08T07:50:22.712Z,54.68
2022-12-08T07:52:24.573Z,53.47
2022-12-08T07:54:27.805Z,53.55
2022-12-08T07:56:29.673Z,52.71
2022-12-08T07:58:34.669Z,53.19
2022-12-08T08:00:37.910Z,52.96
2022-12-08T08:02:40.273Z,52.41
2022-12-08T08:04:42.338Z,52.63
2022-12-08T08:06:44.525Z,53.01
2022-12-08T08:08:46.591Z,51.22
2022-12-08T08:10:48.740Z,51.54
2022-12-08T08:12:51.048Z,50.93
2022-12-08T08:14:52.844Z,50.97
2022-12-08T08:16:54.925Z,50.44
2022-12-08T08:18:57.120Z,49.59
2022-12-08T08:21:06.668Z,50.18
2022-12-08T08:23:21.225Z,51.34
2022-12-08T08:25:23.206Z,50.57
2022-12-08T08:27:26.888Z,50.70
2022-12-08T08:29:28.714Z,50.71
2022-12-08T08:31:30.667Z,49.25
2022-12-08T08:33:33.216Z,50.27
2022-12-08T08:35:35.023Z,49.74
2022-12-08T08:37:36.792Z,49.96
2022-12-08T08:39:38.942Z,49.54
2022-12-08T08:41:41.504Z,49.94
2022-12-08T08:43:43.593Z,50.53
2022-12-08T08:45:45.406Z,50.13
2022-12-08T08:47:47.346Z,49.08
2022-12-08T08:49:49.521Z,48.75
2022-12-08T08:51:54.006Z,49.17
2022-12-08T08:53:56.669Z,50.05
2022-12-08T08:55:58.487Z,50.74
2022-12-08T08:58:00.273Z,51.53
2022-12-08T09:00:05.699Z,51.85
2022-12-08T09:02:15.563Z,51.02
2022-12-08T09:04:18.832Z,51.92
2022-12-08T09:06:21.682Z,51.90
2022-12-08T09:08:24.084Z,52.69
2022-12-08T09:10:27.298Z,52.49
2022-12-08T09:12:29.162Z,53.26
2022-12-08T09:14:31.527Z,55.01
2022-12-08T09:16:37.464Z,55.43
2022-12-08T09:18:43.059Z,53.35
2022-12-08T09:20:44.901Z,54.68
2022-12-08T09:22:46.732Z,52.85
2022-12-08T09:24:48.898Z,52.29
2022-12-08T09:26:50.689Z,52.93
2022-12-08T09:28:53.917Z,54.12
2022-12-08T09:30:56.110Z,52.10
2022-12-08T09:32:58.006Z,54.19
2022-12-08T09:35:00.092Z,53.91
2022-12-08T09:37:02.380Z,53.65
2022-12-08T09:39:04.385Z,53.21
2022-12-08T09:41:16.594Z,52.99
2022-12-08T09:43:44.343Z,52.92
2022-12-08T09:45:48.876Z,52.58
2022-12-08T09:48:10.363Z,52.92
2022-12-08T09:50:39.187Z,53.11
2022-12-08T09:52:52.969Z,53.29
2022-12-08T09:55:01.378Z,52.26
2022-12-08T09:57:08.305Z,52.33
2022-12-08T09:59:13.545Z,52.10
2022-12-08T10:01:16.614Z,54.24
2022-12-08T10:03:20.463Z,53.45
2022-12-08T10:05:25.925Z,53.92
2022-12-08T10:07:27.806Z,53.79
2022-12-08T10:09:41.529Z,53.71
2022-12-08T10:11:46.774Z,54.37
2022-12-08T10:14:31.188Z,55.47
2022-12-08T10:16:42.023Z,56.14
2022-12-08T10:18:43.927Z,55.43
2022-12-08T10:20:49.680Z,55.94
2022-12-08T10:23:12.114Z,54.75
2022-12-08T10:25:19.288Z,55.87
2022-12-08T10:27:22.223Z,54.60
2022-12-08T10:29:24.056Z,56.25
2022-12-08T10:31:26.337Z,57.49
2022-12-08T10:33:29.623Z,56.78
2022-12-08T10:35:47.758Z,56.13
2022-12-08T10:38:01.929Z,56.06
2022-12-08T10:40:43.847Z,56.55
2022-12-08T10:42:51.507Z,57.04
2022-12-08T10:45:15.307Z,57.00
2022-12-08T10:47:21.608Z,57.09
2022-12-08T10:49:29.405Z,56.82
2022-12-08T10:51:34.155Z,56.63
2022-12-08T10:53:46.211Z,58.05
2022-12-08T10:55:50.090Z,57.50
2022-12-08T10:57:52.282Z,56.21
2022-12-08T10:59:59.640Z,56.26
2022-12-08T11:02:03.431Z,57.45
2022-12-08T11:04:16.041Z,58.45
2022-12-08T11:06:21.578Z,59.50
2022-12-08T11:08:24.210Z,60.34
2022-12-08T11:10:33.347Z,58.99
2022-12-08T11:12:36.727Z,59.12
2022-12-08T11:14:45.548Z,58.50
2022-12-08T11:16:47.539Z,58.24
2022-12-08T11:18:57.284Z,57.87
2022-12-08T11:21:05.935Z,58.96
2022-12-08T11:23:24.377Z,58.14
2022-12-08T11:25:27.687Z,60.57
2022-12-08T11:27:32.623Z,59.12
2022-12-08T11:29:35.729Z,59.11
2022-12-08T11:31:54.972Z,58.98
2022-12-08T11:33:57.639Z,59.57
2022-12-08T11:36:06.473Z,60.62
2022-12-08T11:38:22.319Z,60.93
2022-12-08T11:40:36.240Z,60.59
2022-12-08T11:43:10.336Z,59.46
2022-12-08T11:45:19.782Z,60.58
2022-12-08T11:47:41.174Z,60.49
2022-12-08T11:52:02.988Z,61.40
2022-12-08T11:54:27.078Z,61.58
2022-12-08T11:56:37.173Z,62.42
2022-12-08T11:58:44.792Z,63.22
2022-12-08T12:00:47.067Z,62.29
2022-12-08T12:02:59.609Z,64.14
2022-12-08T12:05:23.585Z,64.02
2022-12-08T12:08:04.886Z,63.16
2022-12-08T12:10:25.378Z,64.02
2022-12-08T12:12:39.926Z,64.49
2022-12-08T12:15:09.742Z,63.73
2022-12-08T12:17:26.507Z,64.21
2022-12-08T12:19:35.391Z,65.00
2022-12-08T12:21:49.002Z,63.28
2022-12-08T12:23:59.093Z,63.55
2022-12-08T12:26:07.129Z,63.09
2022-12-08T12:28:12.839Z,63.98
2022-12-08T12:30:24.635Z,63.30
2022-12-08T12:32:39.841Z,63.75
2022-12-08T12:34:57.124Z,65.22
2022-12-08T12:37:10.335Z,65.27
2022-12-08T12:39:14.647Z,65.37
2022-12-08T12:41:27.251Z,64.20
2022-12-08T12:43:37.220Z,64.58
2022-12-08T12:45:47.493Z,64.90
2022-12-08T12:48:17.607Z,63.86
2022-12-08T12:50:34.717Z,63.92
2022-12-08T12:52:37.964Z,64.41
2022-12-08T12:54:43.509Z,64.53
2022-12-08T12:57:00.352Z,64.23
2022-12-08T12:59:42.093Z,64.19
2022-12-08T13:01:52.708Z,64.73
2022-12-08T13:04:09.771Z,65.52
2022-12-08T13:06:14.991Z,66.00
2022-12-08T13:08:24.476Z,67.48
2022-12-08T13:10:37.304Z,65.41
2022-12-08T13:12:39.221Z,65.10
2022-12-08T13:14:50.877Z,66.08
2022-12-08T13:16:56.342Z,66.13
2022-12-08T13:19:02.475Z,66.06
2022-12-08T13:21:10.582Z,64.99
2022-12-08T13:23:27.633Z,65.89
2022-12-08T13:25:40.138Z,66.29
2022-12-08T13:27:54.304Z,65.42
2022-12-08T13:30:34.204Z,65.13
2022-12-08T13:33:17.343Z,65.52
2022-12-08T13:35:18.873Z,65.49
2022-12-08T13:37:53.903Z,67.67
2022-12-08T13:40:02.787Z,66.69
2022-12-08T13:42:23.074Z,65.36
2022-12-08T13:56:24.885Z,66.60
2022-12-08T13:57:36.669Z,66.26
2022-12-08T13:59:44.239Z,65.80
2022-12-08T14:01:48.899Z,67.13
2022-12-08T14:04:31.049Z,67.40
2022-12-08T14:06:44.128Z,68.12
2022-12-08T14:09:00.310Z,67.86
2022-12-08T14:11:07.118Z,68.65
2022-12-08T14:13:12.501Z,68.00
2022-12-08T14:15:16.278Z,68.54
2022-12-08T14:17:22.523Z,68.33
2022-12-08T14:19:27.608Z,68.95
2022-12-08T14:21:34.445Z,68.53
2022-12-08T14:23:38.434Z,67.84
2022-12-08T14:25:47.381Z,68.17
2022-12-08T14:27:50.533Z,68.40
2022-12-08T14:29:56.418Z,69.26
2022-12-08T14:31:58.458Z,68.94
2022-12-08T14:34:00.670Z,68.86
2022-12-08T14:36:02.574Z,69.45
2022-12-08T14:38:06.232Z,69.23
2022-12-08T14:40:33.676Z,68.42
2022-12-08T14:42:48.266Z,68.02
2022-12-08T14:45:01.568Z,67.77
2022-12-08T14:47:09.321Z,68.46
2022-12-08T14:49:32.195Z,68.42
2022-12-08T14:51:34.053Z,67.48
2022-12-08T14:53:42.515Z,67.81
2022-12-08T14:55:48.806Z,67.62
2022-12-08T14:57:50.992Z,68.56
2022-12-08T14:59:53.701Z,67.40
2022-12-08T15:02:16.289Z,68.33
2022-12-08T15:04:24.270Z,67.73
2022-12-08T15:06:26.482Z,68.28
2022-12-08T15:08:28.569Z,67.77
2022-12-08T15:10:33.378Z,68.37
2022-12-08T15:12:35.636Z,68.92
2022-12-08T15:14:41.534Z,68.79
2022-12-08T15:16:44.236Z,69.48
2022-12-08T15:19:02.321Z,69.38
2022-12-08T15:21:09.205Z,69.58
2022-12-08T15:23:21.417Z,68.72
2022-12-08T15:25:25.102Z,69.45
2022-12-08T15:27:27.615Z,68.52
2022-12-08T15:29:31.425Z,68.95
2022-12-08T15:31:33.235Z,69.38
2022-12-08T15:33:35.444Z,68.67
2022-12-08T15:35:41.031Z,68.18
2022-12-08T15:37:43.214Z,68.13
2022-12-08T15:39:45.364Z,68.07
2022-12-08T15:41:48.205Z,67.79
2022-12-08T15:43:50.029Z,67.97
2022-12-08T15:45:59.495Z,68.02
2022-12-08T15:48:02.088Z,68.12
2022-12-08T15:50:07.301Z,67.27
2022-12-08T15:52:14.630Z,66.81
2022-12-08T15:54:18.059Z,66.98
2022-12-08T15:56:28.614Z,67.69
2022-12-08T15:58:52.893Z,68.92
2022-12-08T16:00:55.608Z,67.69
2022-12-08T16:03:28.176Z,67.52
2022-12-08T16:05:44.311Z,67.70
2022-12-08T16:07:45.956Z,68.42
2022-12-08T16:09:48.116Z,67.78
2022-12-08T16:12:10.212Z,68.27
2022-12-08T16:14:54.777Z,68.04
2022-12-08T16:16:34.923Z,67.75
2022-12-08T16:18:40.124Z,67.72
2022-12-08T16:23:19.704Z,68.40
2022-12-08T16:25:33.380Z,68.03
2022-12-08T16:30:08.910Z,67.24
2022-12-08T16:32:10.865Z,68.17
2022-12-08T16:34:12.990Z,67.10
2022-12-08T16:36:15.104Z,66.98
2022-12-08T16:38:17.110Z,66.69
2022-12-08T16:40:19.302Z,66.96
2022-12-08T16:42:39.702Z,66.68
2022-12-08T16:44:45.251Z,67.13
2022-12-08T16:46:47.092Z,66.80
2022-12-08T16:48:49.792Z,67.24
2022-12-08T16:50:51.623Z,66.46
2022-12-08T16:53:02.112Z,66.56
2022-12-08T16:55:16.279Z,67.67
2022-12-08T16:57:18.086Z,67.42
2022-12-08T16:59:20.241Z,68.02
2022-12-08T17:01:23.630Z,66.31
2022-12-08T17:03:25.499Z,66.95
2022-12-08T17:05:27.860Z,66.66
2022-12-08T17:07:29.662Z,67.04
2022-12-08T17:09:32.098Z,67.80
2022-12-08T17:11:40.846Z,67.12
2022-12-08T17:13:44.641Z,66.72
2022-12-08T17:15:46.480Z,66.41
2022-12-08T17:17:48.999Z,66.24
2022-12-08T17:19:50.793Z,66.59
2022-12-08T17:21:52.658Z,65.80
2022-12-08T17:23:55.109Z,66.44
2022-12-08T17:25:59.126Z,67.15
2022-12-08T17:28:00.919Z,66.79
2022-12-08T17:30:05.197Z,66.95
2022-12-08T17:34:34.749Z,67.62
2022-12-08T17:36:37.430Z,67.73
2022-12-08T17:38:39.579Z,66.84
2022-12-08T17:40:41.522Z,66.75
2022-12-08T17:42:43.876Z,67.69
2022-12-08T17:44:46.760Z,67.54
2022-12-08T17:46:52.913Z,67.01
2022-12-08T17:48:55.656Z,66.88
2022-12-08T17:50:57.541Z,67.01
2022-12-08T17:52:59.302Z,67.00
2022-12-08T17:55:01.563Z,67.61
2022-12-08T17:57:03.578Z,67.19
2022-12-08T17:59:05.449Z,68.09
2022-12-08T18:01:09.816Z,69.85
2022-12-08T18:03:20.274Z,67.48
2022-12-08T18:05:24.857Z,66.96
2022-12-08T18:07:27.787Z,66.45
2022-12-08T18:09:30.627Z,66.30
2022-12-08T18:11:36.219Z,66.45
2022-12-08T18:13:41.973Z,65.85
2022-12-08T18:15:44.198Z,65.78
